createdAt,value
2023-01-31T00:01:35.158Z,102333.47
2023-01-31T00:04:04.932Z,102334.38
2023-01-31T00:06:45.125Z,102345.91
2023-01-31T00:09:12.819Z,102340.63
2023-01-31T00:11:39.655Z,102351.25
2023-01-31T00:14:07.154Z,102347.72
2023-01-31T00:16:34.933Z,102348.63
2023-01-31T00:19:02.091Z,102346.88
2023-01-31T00:21:30.953Z,102353.06
2023-01-31T00:23:58.536Z,102354.81
2023-01-31T00:26:26.290Z,102351.31
2023-01-31T00:28:54.409Z,102354.84
2023-01-31T00:31:23.267Z,102354.00
2023-01-31T00:33:51.700Z,102350.44
2023-01-31T00:36:23.751Z,102354.88
2023-01-31T00:38:51.959Z,102354.00
2023-01-31T00:41:23.370Z,102342.50
2023-01-31T00:43:50.379Z,102346.09
2023-01-31T00:46:17.740Z,102359.38
2023-01-31T00:48:44.918Z,102362.03
2023-01-31T00:51:11.907Z,102352.31
2023-01-31T00:53:38.566Z,102362.09
2023-01-31T00:56:11.010Z,102360.28
2023-01-31T00:58:39.508Z,102362.09
2023-01-31T01:01:13.117Z,102361.22
2023-01-31T01:03:40.720Z,102357.69
2023-01-31T01:06:08.163Z,102359.41
2023-01-31T01:08:35.598Z,102358.56
2023-01-31T01:11:12.530Z,102356.81
2023-01-31T01:13:39.995Z,102353.22
2023-01-31T01:16:18.614Z,102360.34
2023-01-31T01:18:46.983Z,102360.38
2023-01-31T01:21:24.923Z,102356.81
2023-01-31T01:23:51.993Z,102363.88
2023-01-31T01:26:25.192Z,102364.78
2023-01-31T01:28:53.342Z,102356.81
2023-01-31T01:31:22.557Z,102349.69
2023-01-31T01:33:49.691Z,102339.94
2023-01-31T01:36:21.976Z,102340.84
2023-01-31T01:38:48.656Z,102343.50
2023-01-31T01:41:15.603Z,102339.06
2023-01-31T01:43:51.342Z,102338.19
2023-01-31T01:46:34.303Z,102335.53
2023-01-31T01:49:13.115Z,102331.97
2023-01-31T01:51:41.460Z,102321.34
2023-01-31T01:54:13.181Z,102314.28
2023-01-31T01:56:45.204Z,102310.72
2023-01-31T01:59:25.517Z,102306.31
2023-01-31T02:01:55.751Z,102310.72
2023-01-31T02:04:27.072Z,102312.50
2023-01-31T02:06:54.038Z,102321.34
2023-01-31T02:09:30.443Z,102312.50
2023-01-31T02:11:58.685Z,102321.38
2023-01-31T02:14:27.022Z,102316.06
2023-01-31T02:16:53.469Z,102310.75
2023-01-31T02:19:35.011Z,102320.50
2023-01-31T02:22:14.548Z,102310.75
2023-01-31T02:25:11.620Z,102320.50
2023-01-31T02:28:04.249Z,102317.03
2023-01-31T02:30:51.617Z,102328.50
2023-01-31T02:33:43.684Z,102324.97
2023-01-31T02:36:38.081Z,102330.28
2023-01-31T02:39:21.950Z,102334.72
2023-01-31T02:42:31.066Z,102338.28
2023-01-31T02:45:33.345Z,102331.28
2023-01-31T02:48:07.828Z,102330.31
2023-01-31T02:50:45.836Z,102334.72
2023-01-31T02:53:21.960Z,102342.75
2023-01-31T02:56:14.789Z,102335.63
2023-01-31T02:59:05.382Z,102345.41
2023-01-31T03:01:36.651Z,102334.81
2023-01-31T03:04:06.738Z,102330.31
2023-01-31T03:06:36.754Z,102331.22
2023-01-31T03:09:36.646Z,102328.56
2023-01-31T03:12:27.208Z,102317.97
2023-01-31T03:15:06.726Z,102309.09
2023-01-31T03:18:21.076Z,102312.66
2023-01-31T03:20:58.864Z,102291.44
2023-01-31T03:23:29.748Z,102298.53
2023-01-31T03:25:59.235Z,102286.13
2023-01-31T03:28:30.697Z,102296.72
2023-01-31T03:31:05.227Z,102310.00
2023-01-31T03:33:38.270Z,102286.13
2023-01-31T03:36:28.064Z,102294.09
2023-01-31T03:39:08.858Z,102294.09
2023-01-31T03:41:48.247Z,102284.34
2023-01-31T03:44:39.482Z,102279.03
2023-01-31T03:47:14.561Z,102286.97
2023-01-31T03:49:43.706Z,102288.78
2023-01-31T03:52:12.797Z,102282.59
2023-01-31T03:54:51.081Z,102286.09
2023-01-31T03:57:23.756Z,102280.78
2023-01-31T03:59:55.301Z,102275.47
2023-01-31T04:02:27.797Z,102268.41
2023-01-31T04:05:03.118Z,102276.38
2023-01-31T04:07:29.685Z,102273.75
2023-01-31T04:09:56.229Z,102267.53
2023-01-31T04:12:22.633Z,102257.81
2023-01-31T04:14:49.049Z,102270.19
2023-01-31T04:17:15.461Z,102264.84
2023-01-31T04:19:41.815Z,102267.53
2023-01-31T04:22:08.267Z,102265.78
2023-01-31T04:24:34.751Z,102265.75
2023-01-31T04:27:01.237Z,102271.97
2023-01-31T04:29:27.652Z,102268.44
2023-01-31T04:31:54.123Z,102277.28
2023-01-31T04:34:20.512Z,102277.28
2023-01-31T04:36:46.910Z,102271.97
2023-01-31T04:39:14.526Z,102275.47
2023-01-31T04:41:40.889Z,102269.31
2023-01-31T04:44:07.262Z,102264.00
2023-01-31T04:46:33.792Z,102271.97
2023-01-31T04:49:00.249Z,102264.88
2023-01-31T04:51:26.677Z,102259.56
2023-01-31T04:53:53.132Z,102257.81
2023-01-31T04:56:19.596Z,102254.25
2023-01-31T04:58:46.100Z,102254.25
2023-01-31T05:01:12.637Z,102252.50
2023-01-31T05:03:39.108Z,102248.91
2023-01-31T05:06:05.910Z,102260.41
2023-01-31T05:08:32.806Z,102240.97
2023-01-31T05:11:03.137Z,102235.66
2023-01-31T05:13:32.802Z,102238.28
2023-01-31T05:15:59.510Z,102243.59
2023-01-31T05:18:26.013Z,102229.47
2023-01-31T05:20:52.573Z,102223.25
2023-01-31T05:23:19.089Z,102227.66
2023-01-31T05:25:48.973Z,102217.88
2023-01-31T05:28:15.460Z,102214.41
2023-01-31T05:30:41.994Z,102219.72
2023-01-31T05:33:08.818Z,102219.72
2023-01-31T05:35:36.009Z,102202.91
2023-01-31T05:38:02.490Z,102195.78
2023-01-31T05:40:28.980Z,102204.66
2023-01-31T05:42:57.469Z,102209.09
2023-01-31T05:45:24.399Z,102209.97
2023-01-31T05:47:51.077Z,102202.00
2023-01-31T05:50:18.194Z,102199.38
2023-01-31T05:52:53.806Z,102201.13
2023-01-31T05:55:21.363Z,102189.63
2023-01-31T05:57:48.273Z,102200.25
2023-01-31T06:00:15.762Z,102200.28
2023-01-31T06:02:42.695Z,102203.81
2023-01-31T06:05:10.159Z,102209.97
2023-01-31T06:07:37.000Z,102208.22
2023-01-31T06:10:04.492Z,102204.69
2023-01-31T06:12:31.332Z,102194.06
2023-01-31T06:14:58.188Z,102203.78
2023-01-31T06:17:24.782Z,102200.25
2023-01-31T06:19:51.852Z,102203.78
2023-01-31T06:22:19.328Z,102201.97
2023-01-31T06:24:46.145Z,102195.75
2023-01-31T06:27:12.586Z,102204.59
2023-01-31T06:29:39.104Z,102216.03
2023-01-31T06:32:06.046Z,102212.47
2023-01-31T06:34:32.952Z,102216.84
2023-01-31T06:36:59.476Z,102209.72
2023-01-31T06:39:26.712Z,102215.00
2023-01-31T06:41:53.067Z,102210.56
2023-01-31T06:44:19.694Z,102220.22
2023-01-31T06:46:46.067Z,102216.66
2023-01-31T06:49:13.866Z,102216.63
2023-01-31T06:51:40.253Z,102212.25
2023-01-31T06:54:06.704Z,102216.53
2023-01-31T06:56:33.157Z,102227.13
2023-01-31T06:58:59.727Z,102220.94
2023-01-31T07:01:26.763Z,102223.50
2023-01-31T07:03:53.175Z,102218.16
2023-01-31T07:06:21.551Z,102206.59
2023-01-31T07:08:47.967Z,102211.91
2023-01-31T07:11:14.398Z,102206.56
2023-01-31T07:13:40.869Z,102205.63
2023-01-31T07:16:07.846Z,102191.38
2023-01-31T07:18:34.287Z,102209.03
2023-01-31T07:21:00.688Z,102193.06
2023-01-31T07:23:27.256Z,102201.88
2023-01-31T07:25:53.623Z,102185.88
2023-01-31T07:28:20.019Z,102184.09
2023-01-31T07:30:47.881Z,102174.22
2023-01-31T07:33:14.568Z,102191.06
2023-01-31T07:35:43.961Z,102169.81
2023-01-31T07:38:11.376Z,102176.81
2023-01-31T07:40:39.948Z,102175.81
2023-01-31T07:43:06.372Z,102178.41
2023-01-31T07:45:33.357Z,102178.38
2023-01-31T07:47:59.899Z,102173.00
2023-01-31T07:50:27.765Z,102188.81
2023-01-31T07:52:54.299Z,102191.47
2023-01-31T07:55:21.240Z,102183.44
2023-01-31T07:57:47.865Z,102179.84
2023-01-31T08:00:33.608Z,102177.03
2023-01-31T08:03:18.875Z,102167.25
2023-01-31T08:05:48.348Z,102168.94
2023-01-31T08:08:15.458Z,102171.50
2023-01-31T08:10:42.002Z,102159.06
2023-01-31T08:13:10.954Z,102153.59
2023-01-31T08:15:37.372Z,102172.13
2023-01-31T08:18:06.303Z,102173.91
2023-01-31T08:20:33.695Z,102170.38
2023-01-31T08:23:00.218Z,102159.66
2023-01-31T08:25:29.309Z,102156.09
2023-01-31T08:27:59.346Z,102162.28
2023-01-31T08:30:26.788Z,102144.56
2023-01-31T08:32:53.432Z,102153.31
2023-01-31T08:35:20.087Z,102140.78
2023-01-31T08:37:46.729Z,102152.25
2023-01-31T08:40:13.347Z,102137.09
2023-01-31T08:42:39.854Z,102117.50
2023-01-31T08:45:07.197Z,102138.75
2023-01-31T08:47:34.133Z,102133.31
2023-01-31T08:50:00.666Z,102133.22
2023-01-31T08:52:27.136Z,102126.06
2023-01-31T08:54:53.507Z,102110.00
2023-01-31T08:57:20.870Z,102111.72
2023-01-31T08:59:47.295Z,102114.22
2023-01-31T09:02:13.708Z,102101.75
2023-01-31T09:04:40.258Z,102091.06
2023-01-31T09:07:06.693Z,102103.34
2023-01-31T09:09:33.161Z,102112.06
2023-01-31T09:11:59.624Z,102101.31
2023-01-31T09:14:26.044Z,102101.16
2023-01-31T09:16:52.552Z,102112.66
2023-01-31T09:19:19.062Z,102113.44
2023-01-31T09:21:45.437Z,102100.94
2023-01-31T09:24:11.888Z,102099.13
2023-01-31T09:26:38.349Z,102115.97
2023-01-31T09:29:04.747Z,102107.94
2023-01-31T09:31:31.482Z,102107.03
2023-01-31T09:33:57.890Z,102095.53
2023-01-31T09:36:25.078Z,102091.84
2023-01-31T09:38:56.731Z,102088.25
2023-01-31T09:41:43.619Z,102067.91
2023-01-31T09:44:21.483Z,102074.03
2023-01-31T09:46:59.442Z,102077.56
2023-01-31T09:49:31.177Z,102079.25
2023-01-31T09:52:00.625Z,102086.38
2023-01-31T09:54:35.318Z,102072.03
2023-01-31T09:57:15.501Z,102081.59
2023-01-31T10:00:13.850Z,102078.81
2023-01-31T10:02:52.616Z,102071.53
2023-01-31T10:05:22.395Z,102063.31
2023-01-31T10:08:26.576Z,102045.41
2023-01-31T10:10:57.275Z,102036.44
2023-01-31T10:13:46.975Z,102024.75
2023-01-31T10:16:31.227Z,102037.84
2023-01-31T10:19:06.426Z,102027.81
2023-01-31T10:21:41.046Z,102041.84
2023-01-31T10:24:32.647Z,102038.13
2023-01-31T10:27:07.406Z,102028.06
2023-01-31T10:29:41.415Z,102032.28
2023-01-31T10:32:38.419Z,102025.81
2023-01-31T10:35:31.848Z,102024.03
2023-01-31T10:38:14.037Z,102013.28
2023-01-31T10:40:44.921Z,102008.69
2023-01-31T10:43:20.358Z,101994.44
2023-01-31T10:45:46.916Z,101997.06
2023-01-31T10:48:25.404Z,101985.31
2023-01-31T10:50:57.922Z,101995.81
2023-01-31T10:53:36.517Z,101986.66
2023-01-31T10:56:36.592Z,101972.38
2023-01-31T10:59:10.666Z,102006.09
2023-01-31T11:01:37.533Z,102007.84
2023-01-31T11:04:23.290Z,102010.56
2023-01-31T11:06:49.690Z,102025.78
2023-01-31T11:09:16.947Z,102034.69
2023-01-31T11:11:55.087Z,102035.69
2023-01-31T11:14:22.134Z,102018.94
2023-01-31T11:16:50.265Z,102008.13
2023-01-31T11:19:34.808Z,101991.16
2023-01-31T11:22:02.427Z,101991.06
2023-01-31T11:24:33.087Z,101995.28
2023-01-31T11:27:07.120Z,101990.66
2023-01-31T11:29:50.430Z,101982.63
2023-01-31T11:32:23.358Z,101982.41
2023-01-31T11:35:30.375Z,101974.41
2023-01-31T11:37:59.772Z,101966.56
2023-01-31T11:40:29.795Z,101971.72
2023-01-31T11:42:58.762Z,101977.84
2023-01-31T11:45:28.347Z,101978.78
2023-01-31T11:48:16.268Z,101963.72
2023-01-31T11:51:10.754Z,101968.19
2023-01-31T11:53:50.867Z,101954.72
2023-01-31T11:56:27.708Z,101954.56
2023-01-31T11:58:57.854Z,101953.59
2023-01-31T12:01:26.593Z,101966.13
2023-01-31T12:04:04.127Z,101960.84
2023-01-31T12:06:39.558Z,101955.69
2023-01-31T12:09:19.791Z,101957.59
2023-01-31T12:12:06.411Z,101953.31
2023-01-31T12:14:42.183Z,101946.31
2023-01-31T12:17:17.328Z,101941.94
2023-01-31T12:19:55.493Z,101950.91
2023-01-31T12:22:30.069Z,101956.34
2023-01-31T12:25:18.760Z,101947.53
2023-01-31T12:28:04.148Z,101943.91
2023-01-31T12:30:49.215Z,101945.63
2023-01-31T12:33:40.911Z,101956.34
2023-01-31T12:37:01.486Z,101938.59
2023-01-31T12:39:38.006Z,101934.19
2023-01-31T12:42:27.365Z,101931.97
2023-01-31T12:45:23.265Z,101925.56
2023-01-31T12:48:09.412Z,101921.88
2023-01-31T12:50:41.409Z,101926.34
2023-01-31T12:53:16.656Z,101929.72
2023-01-31T12:56:18.012Z,101927.09
2023-01-31T12:59:16.580Z,101924.38
2023-01-31T13:01:52.285Z,101927.88
2023-01-31T13:04:21.390Z,101921.56
2023-01-31T13:07:13.047Z,101935.78
2023-01-31T13:09:39.588Z,101933.16
2023-01-31T13:12:15.361Z,101936.66
2023-01-31T13:14:50.462Z,101937.63
2023-01-31T13:17:26.058Z,101945.66
2023-01-31T13:19:57.309Z,101936.94
2023-01-31T13:22:30.009Z,101944.00
2023-01-31T13:25:08.183Z,101949.34
2023-01-31T13:27:39.250Z,101938.75
2023-01-31T13:30:24.337Z,101933.41
2023-01-31T13:32:55.037Z,101941.34
2023-01-31T13:35:26.276Z,101933.25
2023-01-31T13:37:59.786Z,101931.47
2023-01-31T13:40:30.341Z,101915.66
2023-01-31T13:43:02.915Z,101919.78
2023-01-31T13:45:43.167Z,101920.78
2023-01-31T13:48:34.058Z,101926.03
2023-01-31T13:51:27.683Z,101919.78
2023-01-31T13:53:58.063Z,101919.75
2023-01-31T13:56:33.691Z,101918.72
2023-01-31T13:59:00.601Z,101925.81
2023-01-31T14:01:36.896Z,101917.75
2023-01-31T14:04:13.533Z,101928.53
2023-01-31T14:06:58.136Z,101924.16
2023-01-31T14:09:30.439Z,101920.69
2023-01-31T14:12:17.114Z,101921.69
2023-01-31T14:14:51.841Z,101912.91
2023-01-31T14:17:27.347Z,101917.38
2023-01-31T14:19:56.663Z,101913.06
2023-01-31T14:22:34.035Z,101913.09
2023-01-31T14:25:11.164Z,101916.78
2023-01-31T14:27:40.272Z,101914.09
2023-01-31T14:30:06.900Z,101915.06
2023-01-31T14:32:46.703Z,101919.56
2023-01-31T14:35:13.023Z,101908.97
2023-01-31T14:38:08.275Z,101909.94
2023-01-31T14:40:52.728Z,101905.56
2023-01-31T14:43:19.080Z,101912.66
2023-01-31T14:46:04.735Z,101902.94
2023-01-31T14:49:09.674Z,101918.09
2023-01-31T14:51:49.955Z,101916.44
2023-01-31T14:54:34.971Z,101919.19
2023-01-31T14:57:13.015Z,101930.00
2023-01-31T14:59:54.787Z,101927.44
2023-01-31T15:02:40.828Z,101945.09
2023-01-31T15:05:17.370Z,101948.69
2023-01-31T15:07:59.037Z,101958.97
2023-01-31T15:11:04.125Z,101959.75
2023-01-31T15:13:50.583Z,101959.75
2023-01-31T15:16:26.383Z,101966.84
2023-01-31T15:19:20.476Z,101972.19
2023-01-31T15:21:56.837Z,101975.88
2023-01-31T15:24:31.644Z,101979.47
2023-01-31T15:27:00.337Z,101984.84
2023-01-31T15:29:43.898Z,101976.03
2023-01-31T15:32:20.666Z,101985.84
2023-01-31T15:34:55.870Z,101979.66
2023-01-31T15:37:26.032Z,101978.88
2023-01-31T15:40:12.446Z,101977.00
2023-01-31T15:42:38.949Z,101980.69
2023-01-31T15:45:21.994Z,101980.66
2023-01-31T15:48:06.541Z,101979.81
2023-01-31T15:50:34.154Z,101987.00
2023-01-31T15:53:15.255Z,101990.59
2023-01-31T15:55:42.118Z,101983.50
2023-01-31T15:58:18.508Z,101973.69
2023-01-31T16:00:49.437Z,101978.25
2023-01-31T16:03:25.779Z,101967.59
2023-01-31T16:05:55.009Z,101972.91
2023-01-31T16:08:24.185Z,101980.09
2023-01-31T16:10:50.805Z,101970.44
2023-01-31T16:13:18.265Z,101983.69
2023-01-31T16:15:45.503Z,101979.28
2023-01-31T16:18:15.499Z,101967.91
2023-01-31T16:20:49.466Z,101991.72
2023-01-31T16:23:36.700Z,101986.50
2023-01-31T16:26:06.075Z,102003.47
2023-01-31T16:28:39.151Z,102005.28
2023-01-31T16:31:09.650Z,102006.25
2023-01-31T16:33:37.966Z,102016.06
2023-01-31T16:36:17.391Z,102012.66
2023-01-31T16:38:56.325Z,102014.47
2023-01-31T16:41:36.646Z,102015.34
2023-01-31T16:44:03.484Z,102021.63
2023-01-31T16:46:45.463Z,102023.41
2023-01-31T16:49:21.190Z,102025.22
2023-01-31T16:51:48.735Z,102025.31
2023-01-31T16:54:22.873Z,102019.09
2023-01-31T16:57:01.549Z,102018.16
2023-01-31T16:59:34.071Z,102021.69
2023-01-31T17:02:21.985Z,102023.56
2023-01-31T17:04:51.665Z,102029.78
2023-01-31T17:07:30.312Z,102031.56
2023-01-31T17:10:00.399Z,102042.25
2023-01-31T17:12:29.554Z,102042.25
2023-01-31T17:15:02.849Z,102042.31
2023-01-31T17:17:34.275Z,102039.63
2023-01-31T17:20:00.869Z,102028.97
2023-01-31T17:22:27.328Z,102031.63
2023-01-31T17:24:53.876Z,102033.38
2023-01-31T17:27:21.602Z,102028.91
2023-01-31T17:29:48.458Z,102027.13
2023-01-31T17:32:17.235Z,102018.25
2023-01-31T17:34:45.681Z,102015.63
2023-01-31T17:37:14.287Z,102012.94
2023-01-31T17:39:43.160Z,102005.88
2023-01-31T17:42:18.884Z,101996.94
2023-01-31T17:44:45.359Z,101987.31
2023-01-31T17:47:11.790Z,101983.69
2023-01-31T17:49:38.222Z,101994.34
2023-01-31T17:52:04.689Z,101989.09
2023-01-31T17:54:31.749Z,101988.19
2023-01-31T17:56:58.176Z,101986.44
2023-01-31T17:59:27.242Z,101986.41
2023-01-31T18:01:54.199Z,101991.84
2023-01-31T18:04:20.934Z,101989.94
2023-01-31T18:06:47.625Z,101989.09
2023-01-31T18:09:16.515Z,101989.94
2023-01-31T18:11:46.972Z,101989.09
2023-01-31T18:14:14.852Z,101973.94
2023-01-31T18:16:41.387Z,101982.84
2023-01-31T18:19:07.815Z,101983.78
2023-01-31T18:21:41.479Z,101985.50
2023-01-31T18:24:14.717Z,101982.97
2023-01-31T18:26:45.496Z,101968.00
2023-01-31T18:29:19.545Z,101978.59
2023-01-31T18:31:47.172Z,101977.78
2023-01-31T18:34:13.990Z,101984.69
2023-01-31T18:36:40.389Z,101986.53
2023-01-31T18:39:06.926Z,101992.78
2023-01-31T18:41:33.322Z,102001.63
2023-01-31T18:44:00.380Z,101999.91
2023-01-31T18:46:30.730Z,102001.72
2023-01-31T18:48:57.443Z,102001.72
2023-01-31T18:51:23.896Z,101999.91
2023-01-31T18:53:50.256Z,101997.28
2023-01-31T18:56:19.510Z,102000.78
2023-01-31T18:58:49.226Z,101999.84
2023-01-31T19:01:18.546Z,102007.78
2023-01-31T19:03:47.377Z,101998.97
2023-01-31T19:06:16.769Z,102004.31
2023-01-31T19:08:46.985Z,102008.72
2023-01-31T19:11:15.720Z,102011.38
2023-01-31T19:13:42.776Z,101999.94
2023-01-31T19:16:15.831Z,102004.31
2023-01-31T19:18:42.694Z,102012.31
2023-01-31T19:21:45.251Z,102007.06
2023-01-31T19:24:16.797Z,102014.25
2023-01-31T19:26:43.789Z,102016.94
2023-01-31T19:29:14.932Z,102009.78
2023-01-31T19:31:42.004Z,102014.38
2023-01-31T19:34:08.530Z,102025.91
2023-01-31T19:36:40.541Z,102024.94
2023-01-31T19:39:10.273Z,102019.69
2023-01-31T19:41:36.836Z,102015.28
2023-01-31T19:44:04.364Z,102015.28
2023-01-31T19:46:33.735Z,102011.78
2023-01-31T19:49:00.489Z,102023.28
2023-01-31T19:51:27.598Z,102029.44
2023-01-31T19:53:55.969Z,102029.50
2023-01-31T19:56:24.170Z,102028.66
2023-01-31T19:58:50.712Z,102033.09
2023-01-31T20:01:17.338Z,102033.97
2023-01-31T20:03:45.292Z,102033.97
2023-01-31T20:06:17.320Z,102030.44
2023-01-31T20:08:43.897Z,102016.38
2023-01-31T20:11:10.978Z,102024.28
2023-01-31T20:13:37.674Z,102026.91
2023-01-31T20:16:07.258Z,102023.31
2023-01-31T20:18:35.301Z,102017.09
2023-01-31T20:21:01.849Z,102012.66
2023-01-31T20:23:29.246Z,102009.09
2023-01-31T20:25:56.438Z,102007.38
2023-01-31T20:28:23.969Z,102024.22
2023-01-31T20:30:50.799Z,102024.22
2023-01-31T20:35:58.304Z,102019.84
2023-01-31T20:38:24.742Z,102008.38
2023-01-31T20:40:53.307Z,102026.03
2023-01-31T20:43:21.928Z,102025.09
2023-01-31T20:45:49.101Z,102023.38
2023-01-31T20:48:18.246Z,102020.69
2023-01-31T20:50:53.107Z,102020.69
2023-01-31T20:53:20.267Z,102018.88
2023-01-31T20:55:53.921Z,102016.25
2023-01-31T20:58:20.330Z,102019.78
2023-01-31T21:00:46.764Z,102016.25
2023-01-31T21:03:13.259Z,102007.38
2023-01-31T21:05:41.092Z,102020.63
2023-01-31T21:08:07.426Z,102022.38
2023-01-31T21:10:33.926Z,102010.81
2023-01-31T21:13:00.353Z,102010.88
2023-01-31T21:15:28.667Z,102014.34
2023-01-31T21:17:55.702Z,102004.53
2023-01-31T21:20:22.403Z,101999.28
2023-01-31T21:22:49.066Z,102000.09
2023-01-31T21:25:16.401Z,102001.88
2023-01-31T21:27:43.213Z,101990.44
2023-01-31T21:30:10.229Z,101994.78
2023-01-31T21:32:36.642Z,101992.09
2023-01-31T21:35:03.528Z,102001.78
2023-01-31T21:37:30.052Z,101995.63
2023-01-31T21:39:56.413Z,101991.22
2023-01-31T21:42:22.778Z,101992.06
2023-01-31T21:44:49.224Z,101990.28
2023-01-31T21:47:15.940Z,101988.41
2023-01-31T21:49:42.715Z,101987.53
2023-01-31T21:52:09.931Z,101984.03
2023-01-31T21:54:37.264Z,101979.53
2023-01-31T21:57:03.930Z,101979.53
2023-01-31T21:59:32.251Z,101972.47
2023-01-31T22:01:59.016Z,101970.59
2023-01-31T22:04:25.638Z,101963.59
2023-01-31T22:06:53.355Z,101959.16
2023-01-31T22:09:19.804Z,101955.59
2023-01-31T22:11:47.887Z,101948.44
2023-01-31T22:14:16.418Z,101949.34
2023-01-31T22:16:43.287Z,101948.53
2023-01-31T22:19:12.287Z,101952.94
2023-01-31T22:21:46.387Z,101947.66
2023-01-31T22:24:15.213Z,101952.22
2023-01-31T22:26:43.862Z,101963.78
2023-01-31T22:29:12.721Z,101942.44
2023-01-31T22:31:39.587Z,101945.16
2023-01-31T22:34:08.619Z,101934.59
2023-01-31T22:36:35.040Z,101934.66
2023-01-31T22:39:02.061Z,101939.94
2023-01-31T22:41:28.513Z,101935.59
2023-01-31T22:43:55.851Z,101932.06
2023-01-31T22:46:25.296Z,101933.88
2023-01-31T22:48:52.738Z,101940.13
2023-01-31T22:51:21.774Z,101938.34
2023-01-31T22:53:48.364Z,101922.34
2023-01-31T22:56:21.249Z,101920.53
2023-01-31T22:58:48.541Z,101926.88
2023-01-31T23:01:20.548Z,101923.28
2023-01-31T23:03:47.573Z,101921.53
2023-01-31T23:06:15.320Z,101918.88
2023-01-31T23:08:42.654Z,101922.41
2023-01-31T23:11:15.596Z,101925.09
2023-01-31T23:13:43.060Z,101910.13
2023-01-31T23:16:15.789Z,101919.78
2023-01-31T23:18:42.178Z,101919.91
2023-01-31T23:21:14.492Z,101924.31
2023-01-31T23:23:42.801Z,101931.53
2023-01-31T23:26:10.486Z,101945.69
2023-01-31T23:28:36.953Z,101935.13
2023-01-31T23:31:03.694Z,101920.94
2023-01-31T23:33:30.293Z,101932.47
2023-01-31T23:35:56.774Z,101929.88
2023-01-31T23:38:24.114Z,101931.75
2023-01-31T23:40:54.322Z,101930.00
2023-01-31T23:43:22.095Z,101925.53
2023-01-31T23:45:48.902Z,101929.09
2023-01-31T23:48:15.738Z,101921.22
2023-01-31T23:50:42.226Z,101922.03
2023-01-31T23:53:08.913Z,101926.50
2023-01-31T23:55:35.487Z,101926.63
2023-01-31T23:58:02.091Z,101927.50
